createdAt,value
2022-10-14T00:00:41.188Z,26.17
2022-10-14T00:02:54.715Z,19.23
2022-10-14T00:05:10.121Z,18.33
2022-10-14T00:07:24.789Z,17.17
2022-10-14T00:09:40.040Z,19.00
2022-10-14T00:11:58.278Z,20.38
2022-10-14T00:14:16.556Z,22.38
2022-10-14T00:16:31.143Z,19.50
2022-10-14T00:18:48.191Z,18.85
2022-10-14T00:21:03.490Z,19.70
2022-10-14T00:23:16.976Z,23.42
2022-10-14T00:25:32.011Z,16.98
2022-10-14T00:27:45.462Z,18.85
2022-10-14T00:30:02.883Z,18.10
2022-10-14T00:32:17.629Z,22.10
2022-10-14T00:34:44.056Z,15.52
2022-10-14T00:36:57.150Z,21.52
2022-10-14T00:39:11.956Z,16.27
2022-10-14T00:41:34.265Z,18.63
2022-10-14T00:44:02.815Z,19.27
2022-10-14T00:46:15.021Z,17.98
2022-10-14T00:48:29.890Z,20.00
2022-10-14T00:50:35.614Z,20.13
2022-10-14T00:52:41.095Z,19.55
2022-10-14T00:54:49.297Z,17.65
2022-10-14T00:56:52.558Z,16.75
2022-10-14T00:59:07.058Z,18.83
2022-10-14T01:01:20.298Z,16.65
2022-10-14T01:03:33.496Z,24.35
2022-10-14T01:05:56.027Z,21.38
2022-10-14T01:08:20.393Z,22.85
2022-10-14T01:10:40.299Z,20.73
2022-10-14T01:13:06.543Z,20.15
2022-10-14T01:15:40.946Z,17.35
2022-10-14T01:18:10.237Z,19.75
2022-10-14T01:20:30.645Z,14.18
2022-10-14T01:22:54.634Z,18.08
2022-10-14T01:25:32.265Z,18.50
2022-10-14T01:28:16.673Z,16.67
2022-10-14T01:30:58.293Z,20.88
2022-10-14T01:33:16.544Z,20.85
2022-10-14T01:35:37.907Z,17.92
2022-10-14T01:37:58.401Z,17.45
2022-10-14T01:40:17.512Z,21.52
2022-10-14T01:42:35.447Z,19.45
2022-10-14T01:44:56.819Z,17.30
2022-10-14T01:47:15.373Z,17.13
2022-10-14T01:49:40.342Z,15.43
2022-10-14T01:52:04.489Z,19.42
2022-10-14T01:54:27.995Z,14.77
2022-10-14T01:56:45.444Z,15.93
2022-10-14T01:58:50.327Z,17.83
2022-10-14T02:00:52.404Z,16.83
2022-10-14T02:04:56.832Z,19.67
2022-10-14T02:07:16.703Z,18.92
2022-10-14T02:10:01.360Z,14.82
2022-10-14T02:12:21.497Z,17.95
2022-10-14T02:14:38.596Z,21.67
2022-10-14T02:17:21.577Z,17.42
2022-10-14T02:19:44.781Z,29.40
2022-10-14T02:22:10.946Z,20.27
2022-10-14T02:24:29.735Z,18.77
2022-10-14T02:26:44.496Z,22.27
2022-10-14T02:29:12.506Z,18.05
2022-10-14T02:31:29.213Z,19.55
2022-10-14T02:33:48.709Z,19.50
2022-10-14T02:35:52.187Z,18.80
2022-10-14T02:37:56.446Z,21.75
2022-10-14T02:40:05.230Z,18.90
2022-10-14T02:42:07.867Z,22.02
2022-10-14T02:44:21.702Z,19.48
2022-10-14T02:46:39.221Z,21.67
2022-10-14T02:48:55.144Z,24.75
2022-10-14T02:52:59.528Z,15.07
2022-10-14T02:55:01.855Z,24.02
2022-10-14T02:57:05.667Z,22.23
2022-10-14T02:59:18.672Z,33.00
2022-10-14T03:01:45.883Z,20.95
2022-10-14T03:04:00.488Z,20.90
2022-10-14T03:06:14.733Z,26.10
2022-10-14T03:08:28.923Z,24.40
2022-10-14T03:10:48.232Z,21.40
2022-10-14T03:13:02.331Z,25.15
2022-10-14T03:15:21.098Z,23.83
2022-10-14T03:17:33.875Z,22.65
2022-10-14T03:19:51.220Z,24.60
2022-10-14T03:22:05.284Z,25.05
2022-10-14T03:24:19.639Z,28.15
2022-10-14T03:26:38.607Z,23.58
2022-10-14T03:28:52.795Z,21.15
2022-10-14T03:31:10.266Z,23.42
2022-10-14T03:33:43.619Z,19.17
2022-10-14T03:35:59.648Z,22.55
2022-10-14T03:38:26.398Z,28.73
2022-10-14T03:40:40.549Z,26.88
2022-10-14T03:43:00.976Z,29.92
2022-10-14T03:45:21.819Z,26.95
2022-10-14T03:47:35.982Z,32.13
2022-10-14T03:49:48.778Z,28.50
2022-10-14T03:52:09.281Z,30.98
2022-10-14T03:54:23.534Z,34.75
2022-10-14T03:56:37.623Z,33.58
2022-10-14T03:58:40.138Z,28.20
2022-10-14T04:00:47.279Z,36.88
2022-10-14T04:03:05.569Z,37.88
2022-10-14T04:05:14.773Z,35.15
2022-10-14T04:07:30.260Z,35.15
2022-10-14T04:09:44.418Z,39.92
2022-10-14T04:11:59.068Z,28.30
2022-10-14T04:14:24.506Z,30.25
2022-10-14T04:16:27.282Z,32.90
2022-10-14T04:18:37.158Z,33.47
2022-10-14T04:20:40.377Z,32.47
2022-10-14T04:22:59.332Z,28.55
2022-10-14T04:25:13.487Z,29.95
2022-10-14T04:27:27.781Z,29.73
2022-10-14T04:29:48.275Z,33.85
2022-10-14T04:32:13.113Z,27.10
2022-10-14T04:34:26.379Z,32.25
2022-10-14T04:36:40.742Z,28.80
2022-10-14T04:39:07.532Z,28.25
2022-10-14T04:41:23.315Z,23.13
2022-10-14T04:43:36.105Z,16.60
2022-10-14T04:46:04.605Z,16.08
2022-10-14T04:48:20.333Z,19.70
2022-10-14T04:50:34.439Z,17.20
2022-10-14T04:53:10.575Z,17.50
2022-10-14T04:55:33.903Z,17.65
2022-10-14T04:57:47.428Z,17.05
2022-10-14T05:00:02.145Z,15.52
2022-10-14T05:02:51.160Z,14.15
2022-10-14T05:05:06.981Z,15.65
2022-10-14T05:07:24.292Z,10.38
2022-10-14T05:09:48.286Z,16.98
2022-10-14T05:12:12.032Z,19.98
2022-10-14T05:14:22.751Z,13.18
2022-10-14T05:16:35.077Z,23.35
2022-10-14T05:18:37.726Z,15.57
2022-10-14T05:20:44.752Z,12.30
2022-10-14T05:22:47.668Z,14.38
2022-10-14T05:24:50.299Z,13.77
2022-10-14T05:26:53.272Z,15.65
2022-10-14T05:28:55.621Z,15.90
2022-10-14T05:30:58.679Z,16.13
2022-10-14T05:33:01.001Z,11.65
2022-10-14T05:37:22.182Z,11.25
2022-10-14T05:39:37.972Z,13.00
2022-10-14T05:41:52.152Z,17.98
2022-10-14T05:43:59.006Z,15.68
2022-10-14T05:46:01.290Z,23.27
2022-10-14T05:48:06.276Z,15.93
2022-10-14T05:50:08.732Z,18.55
2022-10-14T05:52:22.639Z,23.23
2022-10-14T05:54:36.821Z,18.20
2022-10-14T05:56:52.520Z,18.77
2022-10-14T05:59:18.338Z,15.80
2022-10-14T06:01:34.685Z,14.00
2022-10-14T06:03:50.984Z,16.60
2022-10-14T06:06:08.298Z,16.15
2022-10-14T06:08:22.588Z,18.90
2022-10-14T06:10:36.196Z,15.10
2022-10-14T06:12:50.284Z,15.45
2022-10-14T06:15:04.545Z,18.60
2022-10-14T06:17:20.227Z,19.20
2022-10-14T06:19:34.213Z,12.40
2022-10-14T06:21:36.339Z,15.48
2022-10-14T06:23:38.447Z,16.40
2022-10-14T06:25:40.610Z,15.32
2022-10-14T06:27:42.755Z,18.42
2022-10-14T06:29:56.411Z,18.02
2022-10-14T06:32:10.634Z,12.13
2022-10-14T06:34:24.930Z,15.60
2022-10-14T06:36:39.084Z,15.80
2022-10-14T06:38:53.424Z,21.88
2022-10-14T06:41:07.455Z,11.73
2022-10-14T06:43:22.546Z,13.80
2022-10-14T06:45:35.818Z,23.45
2022-10-14T06:47:50.023Z,13.60
2022-10-14T06:50:07.280Z,13.98
2022-10-14T06:52:20.203Z,14.35
2022-10-14T06:54:38.913Z,17.00
2022-10-14T06:56:54.703Z,17.45
2022-10-14T06:58:58.008Z,25.77
2022-10-14T07:01:07.074Z,27.23
2022-10-14T07:03:09.230Z,19.25
2022-10-14T07:07:25.163Z,17.15
2022-10-14T07:09:39.420Z,20.90
2022-10-14T07:11:52.132Z,19.95
2022-10-14T07:14:06.078Z,18.60
2022-10-14T07:16:20.316Z,15.43
2022-10-14T07:18:34.488Z,15.30
2022-10-14T07:20:47.363Z,15.75
2022-10-14T07:23:01.792Z,12.85
2022-10-14T07:25:14.238Z,12.18
2022-10-14T07:27:28.866Z,10.27
2022-10-14T07:29:43.701Z,10.43
2022-10-14T07:32:22.812Z,9.82
2022-10-14T07:34:37.115Z,8.55
2022-10-14T07:36:39.505Z,10.77
2022-10-14T07:38:46.012Z,5.60
2022-10-14T07:40:57.816Z,6.47
2022-10-14T07:43:01.847Z,7.63
2022-10-14T07:45:17.689Z,4.93
2022-10-14T07:47:33.001Z,5.45
2022-10-14T07:49:47.489Z,6.88
2022-10-14T07:51:49.924Z,7.20
2022-10-14T07:55:58.913Z,8.38
2022-10-14T07:58:01.062Z,9.18
2022-10-14T08:00:15.406Z,8.85
2022-10-14T08:02:29.509Z,8.75
2022-10-14T08:04:43.766Z,7.70
2022-10-14T08:06:58.197Z,16.30
2022-10-14T08:09:12.386Z,8.57
2022-10-14T08:11:28.357Z,5.57
2022-10-14T08:13:45.289Z,4.03
2022-10-14T08:15:59.666Z,6.20
2022-10-14T08:18:13.662Z,6.60
2022-10-14T08:20:27.001Z,5.40
2022-10-14T08:22:43.337Z,5.47
2022-10-14T08:24:57.315Z,9.07
2022-10-14T08:27:10.849Z,7.22
2022-10-14T08:29:13.436Z,5.53
2022-10-14T08:31:16.598Z,5.85
2022-10-14T08:33:18.740Z,6.32
2022-10-14T08:35:21.228Z,3.38
2022-10-14T08:37:34.829Z,9.02
2022-10-14T08:39:48.681Z,5.40
2022-10-14T08:42:19.267Z,5.80
2022-10-14T08:44:34.034Z,3.95
2022-10-14T08:46:36.125Z,3.97
2022-10-14T08:48:39.577Z,4.57
2022-10-14T08:50:49.537Z,7.15
2022-10-14T08:53:10.525Z,5.22
2022-10-14T08:55:36.889Z,5.63
2022-10-14T08:58:20.095Z,3.10
2022-10-14T09:00:38.072Z,6.90
2022-10-14T09:02:52.042Z,6.30
2022-10-14T09:05:04.681Z,5.25
2022-10-14T09:07:20.098Z,7.60
2022-10-14T09:09:46.357Z,5.72
2022-10-14T09:12:06.288Z,5.20
2022-10-14T09:14:24.576Z,6.00
2022-10-14T09:16:40.357Z,8.95
2022-10-14T09:18:59.015Z,7.63
2022-10-14T09:21:40.424Z,7.45
2022-10-14T09:24:10.290Z,5.75
2022-10-14T09:26:24.359Z,4.35
2022-10-14T09:28:41.375Z,6.13
2022-10-14T09:30:55.392Z,6.03
2022-10-14T09:33:20.904Z,17.83
2022-10-14T09:35:42.471Z,8.57
2022-10-14T09:37:55.661Z,7.28
2022-10-14T09:40:12.662Z,6.00
2022-10-14T09:42:40.678Z,7.47
2022-10-14T09:44:42.809Z,6.10
2022-10-14T09:47:08.164Z,4.90
2022-10-14T09:49:19.353Z,5.80
2022-10-14T09:51:23.969Z,3.70
2022-10-14T09:53:56.504Z,3.70
2022-10-14T09:56:10.834Z,5.88
2022-10-14T09:58:32.618Z,6.10
2022-10-14T10:00:47.481Z,7.43
2022-10-14T10:03:01.503Z,4.72
2022-10-14T10:05:29.230Z,8.48
2022-10-14T10:07:41.287Z,8.10
2022-10-14T10:09:59.749Z,6.53
2022-10-14T10:12:31.680Z,4.53
2022-10-14T10:14:59.143Z,4.72
2022-10-14T10:17:19.428Z,5.10
2022-10-14T10:19:44.127Z,10.00
2022-10-14T10:24:37.368Z,9.00
2022-10-14T10:26:51.699Z,6.82
2022-10-14T10:29:06.315Z,6.15
2022-10-14T10:31:32.521Z,8.60
2022-10-14T10:34:13.436Z,7.93
2022-10-14T10:36:33.645Z,10.15
2022-10-14T10:39:13.553Z,10.73
2022-10-14T10:41:32.970Z,11.95
2022-10-14T10:44:01.567Z,7.78
2022-10-14T10:46:17.852Z,6.13
2022-10-14T10:48:45.410Z,7.13
2022-10-14T10:51:26.877Z,13.13
2022-10-14T10:53:43.565Z,10.85
2022-10-14T10:56:08.429Z,9.88
2022-10-14T10:58:49.982Z,11.85
2022-10-14T11:01:08.160Z,13.25
2022-10-14T11:04:27.170Z,8.98
2022-10-14T11:07:28.297Z,8.10
2022-10-14T11:10:13.654Z,14.50
2022-10-14T11:12:59.904Z,8.60
2022-10-14T11:15:48.572Z,11.43
2022-10-14T11:18:20.847Z,8.32
2022-10-14T11:20:41.017Z,9.57
2022-10-14T11:23:24.300Z,10.82
2022-10-14T11:25:36.311Z,14.95
2022-10-14T11:28:13.436Z,13.85
2022-10-14T11:30:19.049Z,9.38
2022-10-14T11:32:45.869Z,9.55
2022-10-14T11:34:48.219Z,11.13
2022-10-14T11:37:09.779Z,9.45
2022-10-14T11:39:59.635Z,11.35
2022-10-14T11:42:41.522Z,15.57
2022-10-14T11:45:29.096Z,10.07
2022-10-14T11:48:15.679Z,11.52
2022-10-14T11:50:40.784Z,8.13
2022-10-14T11:53:13.302Z,9.50
2022-10-14T11:55:46.378Z,9.00
2022-10-14T11:58:18.455Z,9.60
2022-10-14T12:00:36.238Z,9.40
2022-10-14T12:03:20.665Z,12.82
2022-10-14T12:05:47.946Z,9.18
2022-10-14T12:08:02.852Z,8.10
2022-10-14T12:10:15.528Z,9.32
2022-10-14T12:12:22.496Z,8.65
2022-10-14T12:14:44.943Z,9.60
2022-10-14T12:17:00.432Z,9.00
2022-10-14T12:19:19.635Z,10.65
2022-10-14T12:22:12.784Z,12.02
2022-10-14T12:24:31.983Z,12.55
2022-10-14T12:26:57.584Z,9.80
2022-10-14T12:29:15.581Z,12.82
2022-10-14T12:31:38.903Z,15.68
2022-10-14T12:34:30.945Z,12.75
2022-10-14T12:36:45.921Z,12.57
2022-10-14T12:39:34.903Z,9.85
2022-10-14T12:42:10.140Z,19.08
2022-10-14T12:44:49.888Z,16.98
2022-10-14T12:46:53.637Z,13.95
2022-10-14T12:48:55.884Z,9.82
2022-10-14T12:51:17.983Z,13.38
2022-10-14T12:53:34.029Z,14.48
2022-10-14T12:55:51.039Z,10.25
2022-10-14T12:58:06.510Z,8.07
2022-10-14T13:00:36.182Z,10.85
2022-10-14T13:02:44.896Z,10.02
2022-10-14T13:04:53.579Z,10.43
2022-10-14T13:07:35.699Z,11.90
2022-10-14T13:09:58.727Z,8.77
2022-10-14T13:12:20.215Z,8.20
2022-10-14T13:14:58.439Z,11.65
2022-10-14T13:17:04.536Z,13.23
2022-10-14T13:19:38.001Z,13.75
2022-10-14T13:21:43.071Z,6.30
2022-10-14T13:23:57.579Z,10.63
2022-10-14T13:26:10.434Z,11.85
2022-10-14T13:28:35.821Z,7.78
2022-10-14T13:30:59.218Z,6.88
2022-10-14T13:33:21.127Z,7.55
2022-10-14T13:36:05.770Z,7.28
2022-10-14T13:38:24.090Z,11.23
2022-10-14T13:40:44.396Z,8.27
2022-10-14T13:43:00.713Z,13.80
2022-10-14T13:45:15.861Z,7.72
2022-10-14T13:47:30.527Z,6.57
2022-10-14T13:49:44.496Z,8.85
2022-10-14T13:52:04.591Z,13.60
2022-10-14T13:54:38.000Z,12.77
2022-10-14T14:00:33.194Z,9.48
2022-10-14T14:02:29.961Z,8.70
2022-10-14T14:04:51.789Z,11.43
2022-10-14T14:07:27.804Z,10.20
2022-10-14T14:09:39.745Z,10.50
2022-10-14T14:11:59.573Z,15.05
2022-10-14T14:14:23.051Z,10.15
2022-10-14T14:17:00.812Z,12.07
2022-10-14T14:19:29.292Z,12.68
2022-10-14T14:21:41.977Z,11.75
2022-10-14T14:23:54.756Z,9.45
2022-10-14T14:26:18.873Z,8.88
2022-10-14T14:28:36.501Z,14.98
2022-10-14T14:30:55.505Z,21.13
2022-10-14T14:33:13.745Z,10.35
2022-10-14T14:35:29.083Z,10.85
2022-10-14T14:37:56.495Z,17.13
2022-10-14T14:40:24.940Z,9.50
2022-10-14T14:42:42.777Z,16.65
2022-10-14T14:44:59.635Z,12.15
2022-10-14T14:47:13.228Z,14.63
2022-10-14T14:49:38.667Z,16.35
2022-10-14T14:51:53.324Z,12.85
2022-10-14T14:54:08.013Z,12.60
2022-10-14T14:56:32.452Z,15.70
2022-10-14T14:58:51.145Z,12.55
2022-10-14T15:01:19.535Z,12.05
2022-10-14T15:04:12.341Z,12.55
2022-10-14T15:06:27.130Z,10.35
2022-10-14T15:08:42.039Z,11.85
2022-10-14T15:10:57.773Z,9.45
2022-10-14T15:13:32.919Z,15.75
2022-10-14T15:15:35.278Z,12.63
2022-10-14T15:17:47.166Z,14.30
2022-10-14T15:19:50.092Z,16.85
2022-10-14T15:22:22.828Z,16.88
2022-10-14T15:25:00.681Z,9.32
2022-10-14T15:27:35.741Z,10.65
2022-10-14T15:30:17.709Z,16.55
2022-10-14T15:32:32.549Z,14.63
2022-10-14T15:34:46.038Z,16.00
2022-10-14T15:37:00.269Z,14.15
2022-10-14T15:39:14.914Z,13.63
2022-10-14T15:41:29.249Z,20.00
2022-10-14T15:43:42.976Z,18.08
2022-10-14T15:46:18.668Z,20.30
2022-10-14T15:48:30.768Z,14.20
2022-10-14T15:50:46.936Z,15.48
2022-10-14T15:52:59.312Z,15.82
2022-10-14T15:55:22.037Z,15.50
2022-10-14T15:57:35.287Z,22.25
2022-10-14T15:59:53.444Z,18.75
2022-10-14T16:02:33.192Z,14.90
2022-10-14T16:05:07.096Z,21.58
2022-10-14T16:07:20.410Z,21.90
2022-10-14T16:09:34.286Z,14.88
2022-10-14T16:11:49.445Z,23.38
2022-10-14T16:14:01.344Z,16.80
2022-10-14T16:16:19.276Z,18.58
2022-10-14T16:18:32.725Z,15.38
2022-10-14T16:20:46.178Z,10.15
2022-10-14T16:23:04.933Z,11.50
2022-10-14T16:25:33.774Z,16.02
2022-10-14T16:27:47.207Z,16.80
2022-10-14T16:30:01.417Z,12.57
2022-10-14T16:32:14.355Z,14.15
2022-10-14T16:35:08.649Z,17.17
2022-10-14T16:37:26.135Z,15.38
2022-10-14T16:39:40.468Z,20.00
2022-10-14T16:41:56.134Z,13.55
2022-10-14T16:44:24.753Z,15.68
2022-10-14T16:46:48.817Z,14.02
2022-10-14T16:48:51.026Z,21.92
2022-10-14T16:50:54.159Z,15.63
2022-10-14T16:53:16.594Z,18.00
2022-10-14T16:55:30.929Z,19.13
2022-10-14T16:57:44.378Z,13.13
2022-10-14T16:59:59.394Z,15.75
2022-10-14T17:02:15.316Z,14.00
2022-10-14T17:04:31.065Z,13.93
2022-10-14T17:06:42.949Z,16.17
2022-10-14T17:08:59.601Z,22.73
2022-10-14T17:11:12.983Z,12.95
2022-10-14T17:13:25.681Z,12.98
2022-10-14T17:15:45.398Z,15.20
2022-10-14T17:18:01.913Z,14.60
2022-10-14T17:20:16.218Z,17.65
2022-10-14T17:22:30.269Z,14.98
2022-10-14T17:24:44.350Z,15.35
2022-10-14T17:26:58.797Z,21.42
2022-10-14T17:29:15.698Z,21.20
2022-10-14T17:31:31.825Z,17.05
2022-10-14T17:33:45.331Z,24.30
2022-10-14T17:36:01.941Z,19.00
2022-10-14T17:38:14.679Z,18.85
2022-10-14T17:40:16.864Z,20.13
2022-10-14T17:42:19.293Z,23.85
2022-10-14T17:44:23.212Z,23.83
2022-10-14T17:46:27.393Z,27.45
2022-10-14T17:48:30.660Z,25.85
2022-10-14T17:50:38.801Z,28.55
2022-10-14T17:52:40.934Z,25.58
2022-10-14T17:54:57.566Z,23.80
2022-10-14T17:57:17.646Z,30.10
2022-10-14T17:59:33.015Z,26.23
2022-10-14T18:02:03.815Z,27.60
2022-10-14T18:06:37.588Z,22.70
2022-10-14T18:08:48.217Z,23.80
2022-10-14T18:10:50.618Z,26.35
2022-10-14T18:12:53.022Z,22.88
2022-10-14T18:17:12.532Z,22.83
2022-10-14T18:19:27.291Z,27.10
2022-10-14T18:21:42.707Z,17.85
2022-10-14T18:23:58.430Z,25.42
2022-10-14T18:26:14.830Z,25.00
2022-10-14T18:28:34.871Z,25.90
2022-10-14T18:30:48.680Z,26.60
2022-10-14T18:33:02.964Z,28.55
2022-10-14T18:35:17.209Z,25.98
2022-10-14T18:37:38.585Z,30.17
2022-10-14T18:40:02.380Z,24.92
2022-10-14T18:42:19.914Z,31.13
2022-10-14T18:44:38.106Z,27.42
2022-10-14T18:46:53.535Z,22.38
2022-10-14T18:49:10.387Z,28.85
2022-10-14T18:51:27.511Z,28.13
2022-10-14T18:53:42.340Z,26.20
2022-10-14T18:55:44.832Z,30.02
2022-10-14T18:57:47.186Z,30.50
2022-10-14T19:02:23.260Z,26.83
2022-10-14T19:04:36.745Z,26.40
2022-10-14T19:06:59.821Z,27.60
2022-10-14T19:09:14.742Z,37.05
2022-10-14T19:11:28.999Z,24.80
2022-10-14T19:13:43.654Z,23.80
2022-10-14T19:16:04.839Z,29.95
2022-10-14T19:18:19.329Z,29.33
2022-10-14T19:20:40.381Z,32.33
2022-10-14T19:22:56.620Z,30.42
2022-10-14T19:25:09.846Z,26.10
2022-10-14T19:27:25.830Z,32.33
2022-10-14T19:29:39.499Z,26.63
2022-10-14T19:31:54.655Z,27.23
2022-10-14T19:34:11.016Z,26.55
2022-10-14T19:36:29.758Z,26.35
2022-10-14T19:38:52.261Z,24.30
2022-10-14T19:41:08.869Z,23.33
2022-10-14T19:43:22.166Z,22.63
2022-10-14T19:45:41.016Z,29.80
2022-10-14T19:47:55.336Z,23.40
2022-10-14T19:50:10.055Z,21.95
2022-10-14T19:52:23.911Z,24.55
2022-10-14T19:54:37.975Z,21.95
2022-10-14T19:56:52.226Z,18.92
2022-10-14T19:59:06.644Z,21.17
2022-10-14T20:03:11.380Z,23.65
2022-10-14T20:05:19.539Z,25.38
2022-10-14T20:07:22.004Z,31.77
2022-10-14T20:09:33.643Z,20.58
2022-10-14T20:11:50.009Z,23.10
2022-10-14T20:14:03.542Z,24.27
2022-10-14T20:16:17.734Z,21.05
2022-10-14T20:18:30.433Z,26.08
2022-10-14T20:20:44.451Z,24.02
2022-10-14T20:22:58.626Z,28.83
2022-10-14T20:25:15.717Z,30.40
2022-10-14T20:27:28.640Z,26.63
2022-10-14T20:29:43.104Z,29.00
2022-10-14T20:31:57.146Z,25.40
2022-10-14T20:34:11.515Z,20.80
2022-10-14T20:36:28.423Z,22.65
2022-10-14T20:38:42.093Z,25.95
2022-10-14T20:40:55.557Z,22.17
2022-10-14T20:43:08.244Z,25.02
2022-10-14T20:45:20.936Z,28.50
2022-10-14T20:47:34.947Z,30.42
2022-10-14T20:49:49.315Z,26.27
2022-10-14T20:52:01.950Z,33.90
2022-10-14T20:54:15.052Z,28.02
2022-10-14T20:56:32.459Z,25.88
2022-10-14T20:58:46.057Z,22.73
2022-10-14T21:01:07.746Z,23.88
2022-10-14T21:03:20.776Z,20.10
2022-10-14T21:05:37.719Z,17.50
2022-10-14T21:07:52.883Z,24.38
2022-10-14T21:10:07.096Z,18.27
2022-10-14T21:12:21.371Z,15.05
2022-10-14T21:14:35.024Z,27.65
2022-10-14T21:16:37.555Z,20.83
2022-10-14T21:18:39.791Z,23.10
2022-10-14T21:20:42.046Z,23.00
2022-10-14T21:22:55.648Z,19.45
2022-10-14T21:24:57.964Z,32.13
2022-10-14T21:27:00.104Z,26.08
2022-10-14T21:31:10.097Z,35.40
2022-10-14T21:33:12.344Z,25.83
2022-10-14T21:35:14.567Z,23.75
2022-10-14T21:37:20.650Z,25.30
2022-10-14T21:39:39.005Z,23.30
2022-10-14T21:41:51.542Z,25.83
2022-10-14T21:44:05.381Z,23.55
2022-10-14T21:46:31.451Z,26.92
2022-10-14T21:48:45.604Z,20.25
2022-10-14T21:51:14.051Z,23.65
2022-10-14T21:53:27.168Z,24.55
2022-10-14T21:55:29.466Z,17.63
2022-10-14T21:57:31.639Z,23.80
2022-10-14T21:59:36.323Z,23.15
2022-10-14T22:01:39.198Z,19.42
2022-10-14T22:03:42.512Z,25.27
2022-10-14T22:05:45.081Z,22.38
2022-10-14T22:07:48.023Z,27.38
2022-10-14T22:10:00.539Z,22.33
2022-10-14T22:12:14.891Z,24.73
2022-10-14T22:14:43.109Z,19.50
2022-10-14T22:16:55.963Z,19.40
2022-10-14T22:19:11.865Z,17.58
2022-10-14T22:21:26.030Z,23.25
2022-10-14T22:23:40.455Z,23.27
2022-10-14T22:25:45.817Z,19.67
2022-10-14T22:27:47.866Z,21.60
2022-10-14T22:29:49.981Z,22.33
2022-10-14T22:31:52.304Z,19.50
2022-10-14T22:33:54.853Z,17.73
2022-10-14T22:36:10.456Z,15.18
2022-10-14T22:38:13.393Z,18.63
2022-10-14T22:40:26.388Z,18.70
2022-10-14T22:42:42.054Z,16.85
2022-10-14T22:44:54.708Z,21.05
2022-10-14T22:47:07.392Z,16.13
2022-10-14T22:49:20.040Z,17.35
2022-10-14T22:51:40.782Z,17.27
2022-10-14T22:53:54.118Z,16.42
2022-10-14T22:56:10.276Z,15.98
2022-10-14T22:58:23.330Z,19.85
2022-10-14T23:00:35.849Z,20.90
2022-10-14T23:02:49.967Z,13.60
2022-10-14T23:05:02.420Z,20.58
2022-10-14T23:07:15.273Z,17.33
2022-10-14T23:09:17.614Z,15.65
2022-10-14T23:11:22.758Z,19.15
2022-10-14T23:13:25.905Z,18.60
2022-10-14T23:15:28.717Z,17.80
2022-10-14T23:17:31.073Z,15.85
2022-10-14T23:19:33.480Z,19.55
2022-10-14T23:21:37.834Z,13.07
2022-10-14T23:23:40.623Z,18.08
2022-10-14T23:25:53.530Z,19.00
2022-10-14T23:28:05.702Z,12.20
2022-10-14T23:30:18.663Z,15.65
2022-10-14T23:32:31.171Z,13.85
2022-10-14T23:34:43.506Z,13.90
2022-10-14T23:36:56.428Z,14.18
2022-10-14T23:39:09.378Z,16.17
2022-10-14T23:41:22.921Z,12.77
2022-10-14T23:43:35.756Z,13.25
2022-10-14T23:45:48.497Z,11.93
2022-10-14T23:48:00.908Z,15.85
2022-10-14T23:50:13.831Z,15.95
2022-10-14T23:52:26.857Z,16.52
2022-10-14T23:54:29.021Z,14.50
2022-10-14T23:56:31.169Z,13.88
2022-10-14T23:58:33.857Z,13.13
